sensor_id;sensor_type;location;lat;lon;timestamp;P1;durP1;ratioP1;P2;durP2;ratioP2
30235;SDS011;17048;53.092;8.746;2023-07-13T00:02:16;21.45;;;6.28;;
30235;SDS011;17048;53.092;8.746;2023-07-13T00:04:43;15.13;;;6.45;;
30235;SDS011;17048;53.092;8.746;2023-07-13T00:07:13;8.38;;;5.97;;
30235;SDS011;17048;53.092;8.746;2023-07-13T00:09:41;12.20;;;6.38;;
30235;SDS011;17048;53.092;8.746;2023-07-13T00:12:25;9.90;;;6.30;;
30235;SDS011;17048;53.092;8.746;2023-07-13T00:14:52;10.35;;;6.38;;
30235;SDS011;17048;53.092;8.746;2023-07-13T00:17:21;9.35;;;6.15;;
30235;SDS011;17048;53.092;8.746;2023-07-13T00:19:48;10.77;;;5.78;;
30235;SDS011;17048;53.092;8.746;2023-07-13T00:22:15;11.88;;;5.47;;
30235;SDS011;17048;53.092;8.746;2023-07-13T00:24:46;10.68;;;6.15;;
30235;SDS011;17048;53.092;8.746;2023-07-13T00:27:13;9.65;;;6.80;;
30235;SDS011;17048;53.092;8.746;2023-07-13T00:29:40;9.90;;;5.90;;
30235;SDS011;17048;53.092;8.746;2023-07-13T00:32:08;9.93;;;6.40;;
30235;SDS011;17048;53.092;8.746;2023-07-13T00:34:35;8.30;;;6.38;;
30235;SDS011;17048;53.092;8.746;2023-07-13T00:37:03;13.48;;;5.80;;
30235;SDS011;17048;53.092;8.746;2023-07-13T00:39:36;10.50;;;6.50;;
30235;SDS011;17048;53.092;8.746;2023-07-13T00:42:03;12.60;;;6.68;;
30235;SDS011;17048;53.092;8.746;2023-07-13T00:44:29;10.05;;;5.55;;
30235;SDS011;17048;53.092;8.746;2023-07-13T00:46:57;11.88;;;6.35;;
30235;SDS011;17048;53.092;8.746;2023-07-13T00:49:26;18.15;;;6.97;;
30235;SDS011;17048;53.092;8.746;2023-07-13T00:51:55;11.55;;;6.15;;
30235;SDS011;17048;53.092;8.746;2023-07-13T00:54:34;15.45;;;6.75;;
30235;SDS011;17048;53.092;8.746;2023-07-13T00:57:04;17.10;;;6.88;;
30235;SDS011;17048;53.092;8.746;2023-07-13T00:59:31;11.48;;;6.43;;
30235;SDS011;17048;53.092;8.746;2023-07-13T01:02:00;11.68;;;6.57;;
30235;SDS011;17048;53.092;8.746;2023-07-13T01:04:28;14.05;;;6.38;;
30235;SDS011;17048;53.092;8.746;2023-07-13T01:07:01;11.50;;;6.78;;
30235;SDS011;17048;53.092;8.746;2023-07-13T01:09:28;10.23;;;6.50;;
30235;SDS011;17048;53.092;8.746;2023-07-13T01:11:57;14.25;;;6.70;;
30235;SDS011;17048;53.092;8.746;2023-07-13T01:14:25;12.45;;;6.90;;
30235;SDS011;17048;53.092;8.746;2023-07-13T01:16:54;11.05;;;7.10;;
30235;SDS011;17048;53.092;8.746;2023-07-13T01:19:39;10.82;;;7.25;;
30235;SDS011;17048;53.092;8.746;2023-07-13T01:22:10;17.85;;;8.02;;
30235;SDS011;17048;53.092;8.746;2023-07-13T01:24:41;21.80;;;7.20;;
30235;SDS011;17048;53.092;8.746;2023-07-13T01:27:10;24.95;;;8.23;;
30235;SDS011;17048;53.092;8.746;2023-07-13T01:29:38;14.23;;;7.90;;
30235;SDS011;17048;53.092;8.746;2023-07-13T01:32:09;11.68;;;7.60;;
30235;SDS011;17048;53.092;8.746;2023-07-13T01:34:39;12.98;;;7.18;;
30235;SDS011;17048;53.092;8.746;2023-07-13T01:37:09;11.73;;;6.43;;
30235;SDS011;17048;53.092;8.746;2023-07-13T01:39:36;16.73;;;7.30;;
30235;SDS011;17048;53.092;8.746;2023-07-13T01:42:03;10.55;;;6.32;;
30235;SDS011;17048;53.092;8.746;2023-07-13T01:44:30;14.95;;;6.57;;
30235;SDS011;17048;53.092;8.746;2023-07-13T01:47:00;9.93;;;6.05;;
30235;SDS011;17048;53.092;8.746;2023-07-13T01:49:29;17.45;;;6.68;;
30235;SDS011;17048;53.092;8.746;2023-07-13T01:51:55;11.63;;;7.18;;
30235;SDS011;17048;53.092;8.746;2023-07-13T01:54:25;11.07;;;6.28;;
30235;SDS011;17048;53.092;8.746;2023-07-13T01:56:52;13.43;;;6.60;;
30235;SDS011;17048;53.092;8.746;2023-07-13T01:59:22;18.52;;;7.13;;
30235;SDS011;17048;53.092;8.746;2023-07-13T02:01:55;13.07;;;7.68;;
30235;SDS011;17048;53.092;8.746;2023-07-13T02:04:22;15.40;;;7.85;;
30235;SDS011;17048;53.092;8.746;2023-07-13T02:06:49;14.90;;;8.40;;
30235;SDS011;17048;53.092;8.746;2023-07-13T02:09:15;15.65;;;8.85;;
30235;SDS011;17048;53.092;8.746;2023-07-13T02:11:42;22.75;;;7.93;;
30235;SDS011;17048;53.092;8.746;2023-07-13T02:14:09;16.17;;;8.93;;
30235;SDS011;17048;53.092;8.746;2023-07-13T02:16:36;21.77;;;9.13;;
30235;SDS011;17048;53.092;8.746;2023-07-13T02:19:03;12.98;;;7.93;;
30235;SDS011;17048;53.092;8.746;2023-07-13T02:21:30;15.38;;;8.02;;
30235;SDS011;17048;53.092;8.746;2023-07-13T02:23:57;18.70;;;8.80;;
30235;SDS011;17048;53.092;8.746;2023-07-13T02:26:24;22.13;;;8.50;;
30235;SDS011;17048;53.092;8.746;2023-07-13T02:28:51;13.00;;;7.82;;
30235;SDS011;17048;53.092;8.746;2023-07-13T02:31:18;16.42;;;8.57;;
30235;SDS011;17048;53.092;8.746;2023-07-13T02:33:45;13.98;;;7.57;;
30235;SDS011;17048;53.092;8.746;2023-07-13T02:36:12;24.75;;;8.68;;
30235;SDS011;17048;53.092;8.746;2023-07-13T02:38:39;16.08;;;9.48;;
30235;SDS011;17048;53.092;8.746;2023-07-13T02:41:06;17.40;;;8.15;;
30235;SDS011;17048;53.092;8.746;2023-07-13T02:43:34;35.47;;;9.15;;
30235;SDS011;17048;53.092;8.746;2023-07-13T02:46:01;16.30;;;8.57;;
30235;SDS011;17048;53.092;8.746;2023-07-13T02:48:34;14.75;;;8.57;;
30235;SDS011;17048;53.092;8.746;2023-07-13T02:51:02;17.70;;;8.10;;
30235;SDS011;17048;53.092;8.746;2023-07-13T02:53:29;14.85;;;8.40;;
30235;SDS011;17048;53.092;8.746;2023-07-13T02:55:57;13.60;;;6.80;;
30235;SDS011;17048;53.092;8.746;2023-07-13T02:58:23;19.60;;;7.82;;
30235;SDS011;17048;53.092;8.746;2023-07-13T03:00:52;17.55;;;7.30;;
30235;SDS011;17048;53.092;8.746;2023-07-13T03:03:21;16.48;;;8.15;;
30235;SDS011;17048;53.092;8.746;2023-07-13T03:05:47;15.57;;;6.75;;
30235;SDS011;17048;53.092;8.746;2023-07-13T03:08:26;17.10;;;6.85;;
30235;SDS011;17048;53.092;8.746;2023-07-13T03:11:03;25.85;;;7.65;;
30235;SDS011;17048;53.092;8.746;2023-07-13T03:13:33;12.63;;;6.53;;
30235;SDS011;17048;53.092;8.746;2023-07-13T03:16:01;12.85;;;6.57;;
30235;SDS011;17048;53.092;8.746;2023-07-13T03:18:27;16.80;;;6.43;;
30235;SDS011;17048;53.092;8.746;2023-07-13T03:20:54;14.60;;;5.35;;
30235;SDS011;17048;53.092;8.746;2023-07-13T03:23:23;14.07;;;5.35;;
30235;SDS011;17048;53.092;8.746;2023-07-13T03:26:08;12.57;;;5.70;;
30235;SDS011;17048;53.092;8.746;2023-07-13T03:28:36;20.85;;;5.32;;
30235;SDS011;17048;53.092;8.746;2023-07-13T03:31:04;13.63;;;4.68;;
30235;SDS011;17048;53.092;8.746;2023-07-13T03:33:45;8.20;;;4.50;;
30235;SDS011;17048;53.092;8.746;2023-07-13T03:36:27;14.02;;;4.93;;
30235;SDS011;17048;53.092;8.746;2023-07-13T03:39:12;14.70;;;4.95;;
30235;SDS011;17048;53.092;8.746;2023-07-13T03:41:53;10.75;;;4.72;;
30235;SDS011;17048;53.092;8.746;2023-07-13T03:44:35;16.95;;;4.68;;
30235;SDS011;17048;53.092;8.746;2023-07-13T03:47:21;15.05;;;4.40;;
30235;SDS011;17048;53.092;8.746;2023-07-13T03:50:03;18.30;;;4.05;;
30235;SDS011;17048;53.092;8.746;2023-07-13T03:52:48;17.40;;;3.60;;
30235;SDS011;17048;53.092;8.746;2023-07-13T03:55:25;18.73;;;4.60;;
30235;SDS011;17048;53.092;8.746;2023-07-13T04:01:07;9.00;;;3.28;;
30235;SDS011;17048;53.092;8.746;2023-07-13T04:03:47;9.75;;;3.53;;
30235;SDS011;17048;53.092;8.746;2023-07-13T04:09:13;15.68;;;3.78;;
30235;SDS011;17048;53.092;8.746;2023-07-13T04:11:54;14.48;;;3.25;;
30235;SDS011;17048;53.092;8.746;2023-07-13T04:14:32;9.38;;;3.10;;
30235;SDS011;17048;53.092;8.746;2023-07-13T04:17:01;13.57;;;3.55;;
30235;SDS011;17048;53.092;8.746;2023-07-13T04:19:42;9.60;;;3.15;;
30235;SDS011;17048;53.092;8.746;2023-07-13T04:22:31;11.32;;;2.67;;
30235;SDS011;17048;53.092;8.746;2023-07-13T04:25:11;18.00;;;2.75;;
30235;SDS011;17048;53.092;8.746;2023-07-13T04:27:43;10.02;;;3.45;;
30235;SDS011;17048;53.092;8.746;2023-07-13T04:30:25;7.93;;;2.70;;
30235;SDS011;17048;53.092;8.746;2023-07-13T04:33:06;13.82;;;2.92;;
30235;SDS011;17048;53.092;8.746;2023-07-13T04:36:24;12.43;;;3.15;;
30235;SDS011;17048;53.092;8.746;2023-07-13T04:39:02;12.27;;;3.03;;
30235;SDS011;17048;53.092;8.746;2023-07-13T04:41:47;11.75;;;2.67;;
30235;SDS011;17048;53.092;8.746;2023-07-13T04:44:27;16.10;;;2.67;;
30235;SDS011;17048;53.092;8.746;2023-07-13T04:47:29;11.13;;;2.50;;
30235;SDS011;17048;53.092;8.746;2023-07-13T04:50:13;18.90;;;3.30;;
30235;SDS011;17048;53.092;8.746;2023-07-13T04:52:58;15.98;;;3.10;;
30235;SDS011;17048;53.092;8.746;2023-07-13T04:55:39;15.20;;;2.20;;
30235;SDS011;17048;53.092;8.746;2023-07-13T04:58:22;16.52;;;2.83;;
30235;SDS011;17048;53.092;8.746;2023-07-13T05:01:12;13.40;;;2.67;;
30235;SDS011;17048;53.092;8.746;2023-07-13T05:03:55;10.88;;;2.55;;
30235;SDS011;17048;53.092;8.746;2023-07-13T05:07:00;12.75;;;2.30;;
30235;SDS011;17048;53.092;8.746;2023-07-13T05:09:58;13.63;;;2.15;;
30235;SDS011;17048;53.092;8.746;2023-07-13T05:12:40;17.48;;;2.90;;
30235;SDS011;17048;53.092;8.746;2023-07-13T05:15:21;9.38;;;2.28;;
30235;SDS011;17048;53.092;8.746;2023-07-13T05:18:03;7.38;;;2.03;;
30235;SDS011;17048;53.092;8.746;2023-07-13T05:24:02;10.02;;;2.10;;
30235;SDS011;17048;53.092;8.746;2023-07-13T05:26:44;13.07;;;2.10;;
30235;SDS011;17048;53.092;8.746;2023-07-13T05:29:30;10.85;;;2.15;;
30235;SDS011;17048;53.092;8.746;2023-07-13T05:32:14;15.00;;;2.00;;
30235;SDS011;17048;53.092;8.746;2023-07-13T05:34:56;17.45;;;2.75;;
30235;SDS011;17048;53.092;8.746;2023-07-13T05:37:37;19.98;;;2.42;;
30235;SDS011;17048;53.092;8.746;2023-07-13T05:40:18;9.68;;;1.85;;
30235;SDS011;17048;53.092;8.746;2023-07-13T05:43:02;15.68;;;2.60;;
30235;SDS011;17048;53.092;8.746;2023-07-13T05:49:05;10.93;;;2.28;;
30235;SDS011;17048;53.092;8.746;2023-07-13T05:51:46;12.02;;;2.65;;
30235;SDS011;17048;53.092;8.746;2023-07-13T05:54:27;10.95;;;2.28;;
30235;SDS011;17048;53.092;8.746;2023-07-13T05:57:10;7.78;;;1.80;;
30235;SDS011;17048;53.092;8.746;2023-07-13T05:59:54;12.32;;;2.78;;
30235;SDS011;17048;53.092;8.746;2023-07-13T06:02:56;8.38;;;1.70;;
30235;SDS011;17048;53.092;8.746;2023-07-13T06:05:42;9.52;;;1.70;;
30235;SDS011;17048;53.092;8.746;2023-07-13T06:08:27;11.88;;;2.80;;
30235;SDS011;17048;53.092;8.746;2023-07-13T06:11:19;10.82;;;2.00;;
30235;SDS011;17048;53.092;8.746;2023-07-13T06:14:03;12.20;;;2.70;;
30235;SDS011;17048;53.092;8.746;2023-07-13T06:16:46;10.98;;;2.05;;
30235;SDS011;17048;53.092;8.746;2023-07-13T06:19:29;12.77;;;2.03;;
30235;SDS011;17048;53.092;8.746;2023-07-13T06:22:19;10.80;;;2.10;;
30235;SDS011;17048;53.092;8.746;2023-07-13T06:25:06;12.23;;;2.30;;
30235;SDS011;17048;53.092;8.746;2023-07-13T06:28:04;12.82;;;1.90;;
30235;SDS011;17048;53.092;8.746;2023-07-13T06:30:47;7.63;;;2.10;;
30235;SDS011;17048;53.092;8.746;2023-07-13T06:33:32;9.52;;;1.83;;
30235;SDS011;17048;53.092;8.746;2023-07-13T06:36:13;8.52;;;1.85;;
30235;SDS011;17048;53.092;8.746;2023-07-13T06:38:55;14.48;;;2.40;;
30235;SDS011;17048;53.092;8.746;2023-07-13T06:41:42;9.27;;;2.30;;
30235;SDS011;17048;53.092;8.746;2023-07-13T06:44:23;8.65;;;1.27;;
30235;SDS011;17048;53.092;8.746;2023-07-13T06:47:07;15.35;;;2.20;;
30235;SDS011;17048;53.092;8.746;2023-07-13T06:53:05;8.80;;;1.55;;
30235;SDS011;17048;53.092;8.746;2023-07-13T06:55:49;14.95;;;3.17;;
30235;SDS011;17048;53.092;8.746;2023-07-13T06:58:33;14.30;;;2.80;;
30235;SDS011;17048;53.092;8.746;2023-07-13T07:01:20;10.07;;;2.25;;
30235;SDS011;17048;53.092;8.746;2023-07-13T07:04:09;12.52;;;2.30;;
30235;SDS011;17048;53.092;8.746;2023-07-13T07:06:58;12.27;;;2.00;;
30235;SDS011;17048;53.092;8.746;2023-07-13T07:09:47;13.70;;;2.33;;
30235;SDS011;17048;53.092;8.746;2023-07-13T07:12:40;7.85;;;1.83;;
30235;SDS011;17048;53.092;8.746;2023-07-13T07:15:21;8.18;;;2.20;;
30235;SDS011;17048;53.092;8.746;2023-07-13T07:18:10;10.10;;;2.00;;
30235;SDS011;17048;53.092;8.746;2023-07-13T07:20:51;10.98;;;1.75;;
30235;SDS011;17048;53.092;8.746;2023-07-13T07:23:43;6.65;;;1.73;;
30235;SDS011;17048;53.092;8.746;2023-07-13T07:26:27;11.43;;;2.05;;
30235;SDS011;17048;53.092;8.746;2023-07-13T07:29:29;12.95;;;1.98;;
30235;SDS011;17048;53.092;8.746;2023-07-13T07:32:12;9.07;;;2.20;;
30235;SDS011;17048;53.092;8.746;2023-07-13T07:34:58;10.65;;;2.40;;
30235;SDS011;17048;53.092;8.746;2023-07-13T07:37:44;8.77;;;1.95;;
30235;SDS011;17048;53.092;8.746;2023-07-13T07:40:39;8.60;;;2.20;;
30235;SDS011;17048;53.092;8.746;2023-07-13T07:43:35;9.73;;;1.98;;
30235;SDS011;17048;53.092;8.746;2023-07-13T07:46:24;7.82;;;1.70;;
30235;SDS011;17048;53.092;8.746;2023-07-13T07:49:09;11.77;;;1.90;;
30235;SDS011;17048;53.092;8.746;2023-07-13T07:51:56;8.40;;;2.00;;
30235;SDS011;17048;53.092;8.746;2023-07-13T07:57:27;12.48;;;1.80;;
30235;SDS011;17048;53.092;8.746;2023-07-13T08:00:16;10.18;;;2.30;;
30235;SDS011;17048;53.092;8.746;2023-07-13T08:02:57;7.13;;;1.90;;
30235;SDS011;17048;53.092;8.746;2023-07-13T08:16:22;6.53;;;2.17;;
30235;SDS011;17048;53.092;8.746;2023-07-13T08:33:18;6.50;;;2.13;;
30235;SDS011;17048;53.092;8.746;2023-07-13T08:38:59;7.85;;;1.98;;
30235;SDS011;17048;53.092;8.746;2023-07-13T08:50:41;6.57;;;1.80;;
30235;SDS011;17048;53.092;8.746;2023-07-13T08:53:39;14.20;;;3.40;;
30235;SDS011;17048;53.092;8.746;2023-07-13T08:56:29;7.43;;;1.85;;
30235;SDS011;17048;53.092;8.746;2023-07-13T08:59:17;11.32;;;2.33;;
30235;SDS011;17048;53.092;8.746;2023-07-13T09:04:50;6.78;;;1.42;;
30235;SDS011;17048;53.092;8.746;2023-07-13T09:10:43;9.70;;;1.50;;
30235;SDS011;17048;53.092;8.746;2023-07-13T09:16:03;7.03;;;1.67;;
30235;SDS011;17048;53.092;8.746;2023-07-13T09:18:46;7.28;;;1.70;;
30235;SDS011;17048;53.092;8.746;2023-07-13T09:21:34;6.37;;;1.40;;
30235;SDS011;17048;53.092;8.746;2023-07-13T09:24:24;6.22;;;1.20;;
30235;SDS011;17048;53.092;8.746;2023-07-13T09:27:25;10.40;;;1.65;;
30235;SDS011;17048;53.092;8.746;2023-07-13T09:33:09;6.03;;;1.58;;
30235;SDS011;17048;53.092;8.746;2023-07-13T09:36:05;5.32;;;1.45;;
30235;SDS011;17048;53.092;8.746;2023-07-13T09:39:14;8.07;;;1.45;;
30235;SDS011;17048;53.092;8.746;2023-07-13T09:47:33;4.65;;;1.38;;
30235;SDS011;17048;53.092;8.746;2023-07-13T09:56:24;5.10;;;1.20;;
30235;SDS011;17048;53.092;8.746;2023-07-13T10:02:28;7.35;;;1.60;;
30235;SDS011;17048;53.092;8.746;2023-07-13T10:08:25;6.15;;;1.10;;
30235;SDS011;17048;53.092;8.746;2023-07-13T10:11:25;6.55;;;1.10;;
30235;SDS011;17048;53.092;8.746;2023-07-13T10:23:02;7.22;;;1.30;;
30235;SDS011;17048;53.092;8.746;2023-07-13T10:26:07;8.15;;;1.70;;
30235;SDS011;17048;53.092;8.746;2023-07-13T10:36:57;4.45;;;1.23;;
30235;SDS011;17048;53.092;8.746;2023-07-13T10:44:56;4.80;;;1.10;;
30235;SDS011;17048;53.092;8.746;2023-07-13T11:10:49;10.68;;;1.67;;
30235;SDS011;17048;53.092;8.746;2023-07-13T11:58:12;3.80;;;1.35;;
30235;SDS011;17048;53.092;8.746;2023-07-13T12:00:58;1.70;;;0.97;;
30235;SDS011;17048;53.092;8.746;2023-07-13T12:04:03;1.02;;;0.90;;
30235;SDS011;17048;53.092;8.746;2023-07-13T12:12:01;5.33;;;1.77;;
30235;SDS011;17048;53.092;8.746;2023-07-13T12:14:43;2.25;;;1.23;;
30235;SDS011;17048;53.092;8.746;2023-07-13T12:17:24;4.97;;;1.70;;
30235;SDS011;17048;53.092;8.746;2023-07-13T12:20:20;4.38;;;1.50;;
30235;SDS011;17048;53.092;8.746;2023-07-13T12:23:00;1.45;;;1.20;;
30235;SDS011;17048;53.092;8.746;2023-07-13T12:25:55;1.88;;;1.20;;
30235;SDS011;17048;53.092;8.746;2023-07-13T12:28:45;2.58;;;1.15;;
30235;SDS011;17048;53.092;8.746;2023-07-13T12:31:49;3.33;;;1.25;;
30235;SDS011;17048;53.092;8.746;2023-07-13T12:34:30;3.70;;;1.27;;
30235;SDS011;17048;53.092;8.746;2023-07-13T12:37:17;1.73;;;1.30;;
30235;SDS011;17048;53.092;8.746;2023-07-13T12:40:00;6.00;;;1.17;;
30235;SDS011;17048;53.092;8.746;2023-07-13T12:42:51;3.22;;;1.58;;
30235;SDS011;17048;53.092;8.746;2023-07-13T12:45:35;5.40;;;1.38;;
30235;SDS011;17048;53.092;8.746;2023-07-13T12:48:16;1.45;;;1.10;;
30235;SDS011;17048;53.092;8.746;2023-07-13T12:51:00;3.38;;;1.05;;
30235;SDS011;17048;53.092;8.746;2023-07-13T12:54:34;1.35;;;1.10;;
30235;SDS011;17048;53.092;8.746;2023-07-13T12:56:51;1.20;;;0.90;;
30235;SDS011;17048;53.092;8.746;2023-07-13T13:06:06;2.25;;;1.20;;
30235;SDS011;17048;53.092;8.746;2023-07-13T13:11:53;1.45;;;0.98;;
30235;SDS011;17048;53.092;8.746;2023-07-13T13:14:37;2.65;;;1.10;;
30235;SDS011;17048;53.092;8.746;2023-07-13T13:19:53;2.25;;;1.10;;
30235;SDS011;17048;53.092;8.746;2023-07-13T13:22:39;2.20;;;1.03;;
30235;SDS011;17048;53.092;8.746;2023-07-13T13:25:34;2.90;;;1.10;;
30235;SDS011;17048;53.092;8.746;2023-07-13T13:28:19;3.33;;;1.00;;
30235;SDS011;17048;53.092;8.746;2023-07-13T13:31:03;1.15;;;0.80;;
30235;SDS011;17048;53.092;8.746;2023-07-13T13:33:49;1.75;;;0.68;;
30235;SDS011;17048;53.092;8.746;2023-07-13T13:36:33;2.10;;;1.05;;
30235;SDS011;17048;53.092;8.746;2023-07-13T13:39:21;1.40;;;0.80;;
30235;SDS011;17048;53.092;8.746;2023-07-13T13:42:05;1.85;;;0.80;;
30235;SDS011;17048;53.092;8.746;2023-07-13T13:44:45;2.15;;;1.02;;
30235;SDS011;17048;53.092;8.746;2023-07-13T13:47:30;2.30;;;1.00;;
30235;SDS011;17048;53.092;8.746;2023-07-13T13:52:55;2.13;;;0.95;;
30235;SDS011;17048;53.092;8.746;2023-07-13T13:55:36;2.03;;;1.15;;
30235;SDS011;17048;53.092;8.746;2023-07-13T13:58:16;1.45;;;0.80;;
30235;SDS011;17048;53.092;8.746;2023-07-13T14:01:03;2.83;;;1.00;;
30235;SDS011;17048;53.092;8.746;2023-07-13T14:03:48;2.40;;;1.20;;
30235;SDS011;17048;53.092;8.746;2023-07-13T14:06:32;2.75;;;1.10;;
30235;SDS011;17048;53.092;8.746;2023-07-13T14:09:18;1.02;;;0.93;;
30235;SDS011;17048;53.092;8.746;2023-07-13T14:12:00;2.03;;;0.90;;
30235;SDS011;17048;53.092;8.746;2023-07-13T14:14:44;1.67;;;0.80;;
30235;SDS011;17048;53.092;8.746;2023-07-13T14:17:25;7.68;;;0.98;;
30235;SDS011;17048;53.092;8.746;2023-07-13T14:20:17;4.97;;;1.23;;
30235;SDS011;17048;53.092;8.746;2023-07-13T14:23:07;2.00;;;1.10;;
30235;SDS011;17048;53.092;8.746;2023-07-13T14:25:51;2.88;;;1.27;;
30235;SDS011;17048;53.092;8.746;2023-07-13T14:28:37;4.45;;;1.38;;
30235;SDS011;17048;53.092;8.746;2023-07-13T14:31:20;1.98;;;1.00;;
30235;SDS011;17048;53.092;8.746;2023-07-13T14:34:04;2.78;;;1.33;;
30235;SDS011;17048;53.092;8.746;2023-07-13T14:36:46;2.45;;;0.93;;
30235;SDS011;17048;53.092;8.746;2023-07-13T14:39:29;2.20;;;1.40;;
30235;SDS011;17048;53.092;8.746;2023-07-13T14:42:10;2.60;;;1.23;;
30235;SDS011;17048;53.092;8.746;2023-07-13T14:44:53;1.58;;;1.13;;
30235;SDS011;17048;53.092;8.746;2023-07-13T14:47:34;2.60;;;1.30;;
30235;SDS011;17048;53.092;8.746;2023-07-13T14:50:20;3.60;;;1.23;;
30235;SDS011;17048;53.092;8.746;2023-07-13T14:53:02;4.63;;;1.52;;
30235;SDS011;17048;53.092;8.746;2023-07-13T14:55:51;4.32;;;1.70;;
30235;SDS011;17048;53.092;8.746;2023-07-13T14:58:31;4.55;;;1.65;;
30235;SDS011;17048;53.092;8.746;2023-07-13T15:01:13;3.75;;;1.35;;
30235;SDS011;17048;53.092;8.746;2023-07-13T15:03:55;3.25;;;1.77;;
30235;SDS011;17048;53.092;8.746;2023-07-13T15:14:35;2.35;;;0.70;;
30235;SDS011;17048;53.092;8.746;2023-07-13T15:17:31;3.45;;;1.13;;
30235;SDS011;17048;53.092;8.746;2023-07-13T15:22:53;2.85;;;1.38;;
30235;SDS011;17048;53.092;8.746;2023-07-13T15:25:36;6.32;;;1.20;;
30235;SDS011;17048;53.092;8.746;2023-07-13T15:28:17;3.92;;;1.25;;
30235;SDS011;17048;53.092;8.746;2023-07-13T15:31:05;1.85;;;1.00;;
30235;SDS011;17048;53.092;8.746;2023-07-13T15:36:27;3.55;;;1.25;;
30235;SDS011;17048;53.092;8.746;2023-07-13T15:39:19;2.65;;;1.00;;
30235;SDS011;17048;53.092;8.746;2023-07-13T15:44:36;5.18;;;1.20;;
30235;SDS011;17048;53.092;8.746;2023-07-13T15:47:20;5.05;;;1.30;;
30235;SDS011;17048;53.092;8.746;2023-07-13T15:50:05;2.22;;;1.13;;
30235;SDS011;17048;53.092;8.746;2023-07-13T15:52:50;5.60;;;1.20;;
30235;SDS011;17048;53.092;8.746;2023-07-13T15:55:39;1.52;;;1.13;;
30235;SDS011;17048;53.092;8.746;2023-07-13T15:58:22;2.53;;;1.25;;
30235;SDS011;17048;53.092;8.746;2023-07-13T16:06:39;2.13;;;1.10;;
30235;SDS011;17048;53.092;8.746;2023-07-13T16:09:22;2.65;;;1.50;;
30235;SDS011;17048;53.092;8.746;2023-07-13T16:17:47;4.10;;;1.60;;
30235;SDS011;17048;53.092;8.746;2023-07-13T16:20:33;2.28;;;1.13;;
30235;SDS011;17048;53.092;8.746;2023-07-13T16:26:35;3.10;;;1.60;;
30235;SDS011;17048;53.092;8.746;2023-07-13T16:32:05;3.63;;;2.03;;
30235;SDS011;17048;53.092;8.746;2023-07-13T16:35:01;7.53;;;3.17;;
30235;SDS011;17048;53.092;8.746;2023-07-13T16:41:05;5.43;;;2.17;;
30235;SDS011;17048;53.092;8.746;2023-07-13T16:43:48;6.32;;;1.73;;
30235;SDS011;17048;53.092;8.746;2023-07-13T16:46:33;2.53;;;1.95;;
30235;SDS011;17048;53.092;8.746;2023-07-13T16:52:32;3.67;;;1.85;;
30235;SDS011;17048;53.092;8.746;2023-07-13T16:55:19;2.58;;;2.05;;
30235;SDS011;17048;53.092;8.746;2023-07-13T16:58:44;7.13;;;2.63;;
30235;SDS011;17048;53.092;8.746;2023-07-13T17:01:47;4.68;;;2.78;;
30235;SDS011;17048;53.092;8.746;2023-07-13T17:04:31;5.32;;;2.85;;
30235;SDS011;17048;53.092;8.746;2023-07-13T17:07:13;6.60;;;3.47;;
30235;SDS011;17048;53.092;8.746;2023-07-13T17:09:58;6.43;;;3.05;;
30235;SDS011;17048;53.092;8.746;2023-07-13T17:12:44;5.50;;;3.20;;
30235;SDS011;17048;53.092;8.746;2023-07-13T17:17:58;9.15;;;3.05;;
30235;SDS011;17048;53.092;8.746;2023-07-13T17:20:48;7.38;;;3.42;;
30235;SDS011;17048;53.092;8.746;2023-07-13T17:23:28;7.18;;;3.33;;
30235;SDS011;17048;53.092;8.746;2023-07-13T17:26:32;5.10;;;2.90;;
30235;SDS011;17048;53.092;8.746;2023-07-13T17:29:12;7.72;;;3.67;;
30235;SDS011;17048;53.092;8.746;2023-07-13T17:31:53;8.20;;;3.90;;
30235;SDS011;17048;53.092;8.746;2023-07-13T17:34:54;8.43;;;3.40;;
30235;SDS011;17048;53.092;8.746;2023-07-13T17:37:55;4.60;;;2.55;;
30235;SDS011;17048;53.092;8.746;2023-07-13T17:40:42;6.95;;;2.92;;
30235;SDS011;17048;53.092;8.746;2023-07-13T17:43:28;5.88;;;2.60;;
30235;SDS011;17048;53.092;8.746;2023-07-13T17:46:12;5.28;;;2.70;;
30235;SDS011;17048;53.092;8.746;2023-07-13T17:52:17;7.28;;;2.65;;
30235;SDS011;17048;53.092;8.746;2023-07-13T17:54:59;4.82;;;2.55;;
30235;SDS011;17048;53.092;8.746;2023-07-13T17:57:43;4.80;;;2.20;;
30235;SDS011;17048;53.092;8.746;2023-07-13T18:06:05;4.03;;;2.40;;
30235;SDS011;17048;53.092;8.746;2023-07-13T18:08:56;7.07;;;2.15;;
30235;SDS011;17048;53.092;8.746;2023-07-13T18:11:38;4.45;;;2.75;;
30235;SDS011;17048;53.092;8.746;2023-07-13T18:16:55;5.78;;;2.38;;
30235;SDS011;17048;53.092;8.746;2023-07-13T18:19:44;6.60;;;2.22;;
30235;SDS011;17048;53.092;8.746;2023-07-13T18:22:45;4.20;;;2.45;;
30235;SDS011;17048;53.092;8.746;2023-07-13T18:25:35;4.78;;;2.53;;
30235;SDS011;17048;53.092;8.746;2023-07-13T18:34:51;10.05;;;3.10;;
30235;SDS011;17048;53.092;8.746;2023-07-13T18:37:35;8.35;;;2.95;;
30235;SDS011;17048;53.092;8.746;2023-07-13T18:40:19;11.32;;;3.35;;
30235;SDS011;17048;53.092;8.746;2023-07-13T18:49:50;8.40;;;2.70;;
30235;SDS011;17048;53.092;8.746;2023-07-13T18:52:35;9.67;;;3.27;;
30235;SDS011;17048;53.092;8.746;2023-07-13T18:55:19;5.68;;;2.72;;
30235;SDS011;17048;53.092;8.746;2023-07-13T19:00:35;8.70;;;3.63;;
30235;SDS011;17048;53.092;8.746;2023-07-13T19:03:19;4.97;;;3.35;;
30235;SDS011;17048;53.092;8.746;2023-07-13T19:09:04;6.28;;;2.60;;
30235;SDS011;17048;53.092;8.746;2023-07-13T19:11:48;3.90;;;2.78;;
30235;SDS011;17048;53.092;8.746;2023-07-13T19:14:29;6.70;;;2.97;;
30235;SDS011;17048;53.092;8.746;2023-07-13T19:17:11;10.25;;;2.95;;
30235;SDS011;17048;53.092;8.746;2023-07-13T19:19:53;4.45;;;2.85;;
30235;SDS011;17048;53.092;8.746;2023-07-13T19:22:46;6.13;;;3.35;;
30235;SDS011;17048;53.092;8.746;2023-07-13T19:25:33;8.82;;;3.28;;
30235;SDS011;17048;53.092;8.746;2023-07-13T19:28:22;5.20;;;3.10;;
30235;SDS011;17048;53.092;8.746;2023-07-13T19:31:17;5.97;;;3.47;;
30235;SDS011;17048;53.092;8.746;2023-07-13T19:33:59;5.72;;;3.50;;
30235;SDS011;17048;53.092;8.746;2023-07-13T19:36:41;6.25;;;3.78;;
30235;SDS011;17048;53.092;8.746;2023-07-13T19:39:27;6.20;;;4.00;;
30235;SDS011;17048;53.092;8.746;2023-07-13T19:45:28;7.47;;;3.88;;
30235;SDS011;17048;53.092;8.746;2023-07-13T19:48:12;4.60;;;2.83;;
30235;SDS011;17048;53.092;8.746;2023-07-13T19:50:53;8.48;;;3.40;;
30235;SDS011;17048;53.092;8.746;2023-07-13T19:53:38;5.40;;;3.25;;
30235;SDS011;17048;53.092;8.746;2023-07-13T19:56:11;5.47;;;3.47;;
30235;SDS011;17048;53.092;8.746;2023-07-13T19:58:52;5.53;;;2.97;;
30235;SDS011;17048;53.092;8.746;2023-07-13T20:04:16;3.55;;;3.22;;
30235;SDS011;17048;53.092;8.746;2023-07-13T20:06:58;5.90;;;3.92;;
30235;SDS011;17048;53.092;8.746;2023-07-13T20:09:59;5.70;;;3.20;;
30235;SDS011;17048;53.092;8.746;2023-07-13T20:12:41;4.78;;;3.35;;
30235;SDS011;17048;53.092;8.746;2023-07-13T20:15:23;11.30;;;3.80;;
30235;SDS011;17048;53.092;8.746;2023-07-13T20:18:20;6.13;;;3.25;;
30235;SDS011;17048;53.092;8.746;2023-07-13T20:21:02;13.52;;;3.60;;
30235;SDS011;17048;53.092;8.746;2023-07-13T20:23:49;5.15;;;3.38;;
30235;SDS011;17048;53.092;8.746;2023-07-13T20:26:21;5.20;;;3.03;;
30235;SDS011;17048;53.092;8.746;2023-07-13T20:29:02;3.90;;;2.70;;
30235;SDS011;17048;53.092;8.746;2023-07-13T20:34:26;6.38;;;2.60;;
30235;SDS011;17048;53.092;8.746;2023-07-13T20:40:31;5.50;;;3.13;;
30235;SDS011;17048;53.092;8.746;2023-07-13T20:43:02;5.13;;;3.57;;
30235;SDS011;17048;53.092;8.746;2023-07-13T20:45:44;7.88;;;3.00;;
30235;SDS011;17048;53.092;8.746;2023-07-13T20:51:04;5.47;;;3.20;;
30235;SDS011;17048;53.092;8.746;2023-07-13T20:53:48;6.72;;;3.80;;